createdAt,value
2022-11-15T00:02:08.796Z,55.64
2022-11-15T00:04:29.276Z,55.41
2022-11-15T00:06:50.079Z,55.30
2022-11-15T00:09:10.881Z,55.61
2022-11-15T00:11:32.036Z,56.12
2022-11-15T00:13:55.891Z,56.26
2022-11-15T00:16:16.788Z,56.04
2022-11-15T00:18:38.513Z,56.20
2022-11-15T00:21:06.122Z,56.29
2022-11-15T00:23:26.718Z,56.76
2022-11-15T00:26:00.465Z,56.46
2022-11-15T00:28:21.109Z,56.81
2022-11-15T00:30:44.097Z,56.67
2022-11-15T00:33:06.330Z,56.38
2022-11-15T00:35:28.352Z,56.91
2022-11-15T00:37:49.599Z,56.96
2022-11-15T00:40:11.133Z,56.57
2022-11-15T00:42:31.573Z,56.62
2022-11-15T00:44:52.296Z,56.31
2022-11-15T00:47:12.771Z,56.87
2022-11-15T00:49:34.092Z,56.71
2022-11-15T00:51:54.747Z,56.42
2022-11-15T00:54:15.506Z,56.27
2022-11-15T00:56:35.873Z,56.18
2022-11-15T00:58:56.119Z,56.26
2022-11-15T01:01:16.596Z,56.24
2022-11-15T01:03:39.007Z,56.36
2022-11-15T01:06:01.297Z,56.37
2022-11-15T01:08:21.908Z,56.35
2022-11-15T01:10:43.743Z,56.57
2022-11-15T01:13:04.370Z,56.68
2022-11-15T01:15:24.642Z,56.78
2022-11-15T01:17:45.178Z,57.12
2022-11-15T01:21:09.647Z,57.22
2022-11-15T01:23:30.358Z,56.51
2022-11-15T01:25:51.098Z,56.72
2022-11-15T01:28:12.016Z,56.42
2022-11-15T01:30:33.052Z,56.68
2022-11-15T01:32:53.254Z,56.53
2022-11-15T01:35:14.109Z,56.50
2022-11-15T01:37:34.738Z,56.17
2022-11-15T01:39:55.305Z,56.49
2022-11-15T01:42:16.126Z,56.65
2022-11-15T01:44:44.306Z,56.69
2022-11-15T01:47:10.237Z,56.49
2022-11-15T01:49:34.839Z,56.46
2022-11-15T01:51:56.246Z,56.27
2022-11-15T01:58:11.397Z,57.06
2022-11-15T02:00:33.044Z,57.44
2022-11-15T02:02:54.424Z,57.02
2022-11-15T02:05:15.058Z,57.23
2022-11-15T02:07:37.305Z,57.13
2022-11-15T02:10:03.947Z,57.43
2022-11-15T02:12:24.822Z,57.25
2022-11-15T02:14:49.451Z,57.47
2022-11-15T02:17:26.058Z,58.06
2022-11-15T02:19:52.445Z,58.38
2022-11-15T02:22:21.865Z,58.05
2022-11-15T02:25:02.628Z,58.50
2022-11-15T02:27:53.339Z,58.86
2022-11-15T02:30:27.342Z,58.96
2022-11-15T02:32:54.188Z,58.29
2022-11-15T02:35:53.305Z,58.74
2022-11-15T02:38:31.827Z,58.49
2022-11-15T02:41:03.556Z,58.69
2022-11-15T02:43:51.232Z,58.74
2022-11-15T02:46:59.599Z,58.73
2022-11-15T02:49:20.888Z,58.38
2022-11-15T02:51:42.973Z,58.77
2022-11-15T02:54:03.689Z,58.55
2022-11-15T02:56:26.765Z,58.71
2022-11-15T02:59:13.351Z,58.66
2022-11-15T03:01:57.183Z,59.38
2022-11-15T03:04:24.838Z,58.86
2022-11-15T03:06:55.061Z,58.79
2022-11-15T03:09:44.140Z,58.64
2022-11-15T03:12:12.996Z,58.69
2022-11-15T03:14:38.430Z,58.46
2022-11-15T03:17:04.852Z,58.23
2022-11-15T03:19:35.330Z,57.89
2022-11-15T03:21:59.175Z,57.81
2022-11-15T03:24:46.603Z,57.63
2022-11-15T03:27:11.267Z,58.21
2022-11-15T03:29:39.177Z,57.82
2022-11-15T03:32:06.373Z,57.82
2022-11-15T03:34:39.257Z,57.77
2022-11-15T03:37:00.317Z,57.73
2022-11-15T03:39:22.741Z,57.55
2022-11-15T03:41:52.518Z,57.38
2022-11-15T03:44:24.594Z,57.46
2022-11-15T03:46:55.976Z,57.37
2022-11-15T03:49:23.824Z,57.77
2022-11-15T03:51:45.021Z,57.77
2022-11-15T03:54:09.136Z,58.12
2022-11-15T03:56:29.845Z,58.18
2022-11-15T03:58:50.672Z,57.83
2022-11-15T04:01:10.840Z,58.34
2022-11-15T04:03:31.770Z,58.22
2022-11-15T04:05:52.567Z,58.17
2022-11-15T04:08:13.385Z,58.01
2022-11-15T04:10:33.921Z,58.83
2022-11-15T04:12:54.883Z,58.71
2022-11-15T04:15:18.823Z,58.33
2022-11-15T04:17:44.405Z,58.48
2022-11-15T04:20:25.441Z,58.18
2022-11-15T04:23:04.805Z,58.04
2022-11-15T04:25:31.079Z,58.27
2022-11-15T04:27:52.645Z,57.66
2022-11-15T04:30:13.286Z,57.71
2022-11-15T04:32:33.993Z,57.63
2022-11-15T04:34:54.096Z,57.58
2022-11-15T04:37:16.419Z,57.62
2022-11-15T04:39:37.201Z,57.86
2022-11-15T04:41:57.961Z,57.84
2022-11-15T04:44:18.702Z,57.79
2022-11-15T04:46:39.426Z,58.14
2022-11-15T04:49:00.109Z,58.23
2022-11-15T04:51:20.967Z,58.59
2022-11-15T04:54:07.771Z,58.51
2022-11-15T04:56:32.307Z,58.13
2022-11-15T04:58:54.160Z,58.45
2022-11-15T05:01:16.204Z,58.22
2022-11-15T05:03:55.306Z,58.36
2022-11-15T05:06:16.210Z,58.14
2022-11-15T05:08:39.733Z,58.10
2022-11-15T05:11:00.546Z,57.82
2022-11-15T05:13:21.409Z,58.25
2022-11-15T05:15:42.182Z,57.95
2022-11-15T05:18:04.461Z,57.77
2022-11-15T05:20:25.635Z,57.68
2022-11-15T05:22:46.254Z,57.87
2022-11-15T05:25:07.762Z,57.84
2022-11-15T05:27:28.236Z,57.79
2022-11-15T05:29:49.027Z,57.90
2022-11-15T05:32:11.463Z,57.89
2022-11-15T05:34:32.405Z,58.31
2022-11-15T05:36:53.090Z,58.06
2022-11-15T05:39:21.664Z,57.70
2022-11-15T05:41:56.915Z,58.07
2022-11-15T05:44:21.283Z,58.16
2022-11-15T05:46:43.328Z,58.14
2022-11-15T05:49:07.613Z,58.37
2022-11-15T05:51:30.368Z,58.39
2022-11-15T05:53:53.289Z,57.96
2022-11-15T05:56:14.169Z,57.91
2022-11-15T05:58:38.193Z,58.16
2022-11-15T06:00:59.092Z,58.07
2022-11-15T06:03:26.242Z,58.42
2022-11-15T06:05:46.912Z,58.10
2022-11-15T06:08:07.804Z,57.95
2022-11-15T06:10:28.421Z,58.56
2022-11-15T06:13:04.405Z,58.13
2022-11-15T06:15:24.869Z,58.24
2022-11-15T06:17:45.352Z,58.79
2022-11-15T06:20:06.285Z,58.60
2022-11-15T06:22:26.701Z,58.82
2022-11-15T06:24:47.870Z,58.53
2022-11-15T06:27:08.306Z,58.87
2022-11-15T06:29:29.105Z,58.52
2022-11-15T06:31:49.966Z,58.57
2022-11-15T06:34:10.660Z,58.31
2022-11-15T06:36:31.035Z,58.24
2022-11-15T06:38:54.157Z,57.74
2022-11-15T06:45:02.411Z,57.97
2022-11-15T06:47:23.065Z,57.92
2022-11-15T06:49:44.015Z,57.98
2022-11-15T06:52:04.915Z,57.78
2022-11-15T06:54:26.466Z,57.77
2022-11-15T06:56:47.116Z,57.45
2022-11-15T06:59:07.531Z,57.87
2022-11-15T07:01:28.081Z,57.85
2022-11-15T07:03:51.630Z,57.91
2022-11-15T07:06:12.344Z,57.72
2022-11-15T07:08:33.120Z,57.34
2022-11-15T07:10:54.054Z,57.49
2022-11-15T07:13:14.758Z,57.17
2022-11-15T07:15:35.177Z,56.90
2022-11-15T07:17:55.741Z,57.15
2022-11-15T07:20:19.927Z,56.82
2022-11-15T07:22:43.947Z,56.73
2022-11-15T07:25:04.955Z,56.60
2022-11-15T07:27:25.822Z,56.32
2022-11-15T07:29:46.616Z,56.47
2022-11-15T07:32:07.393Z,56.60
2022-11-15T07:34:27.758Z,56.30
2022-11-15T07:36:48.134Z,56.78
2022-11-15T07:39:09.379Z,56.83
2022-11-15T07:41:30.978Z,56.45
2022-11-15T07:43:54.397Z,56.08
2022-11-15T07:46:16.445Z,55.61
2022-11-15T07:48:44.086Z,55.73
2022-11-15T07:51:09.895Z,55.45
2022-11-15T07:53:34.252Z,55.13
2022-11-15T07:55:55.083Z,55.17
2022-11-15T07:58:16.098Z,54.19
2022-11-15T08:00:37.192Z,54.40
2022-11-15T08:03:24.221Z,53.53
2022-11-15T08:05:52.166Z,54.41
2022-11-15T08:08:13.061Z,55.05
2022-11-15T08:10:39.378Z,55.10
2022-11-15T08:13:04.056Z,54.71
2022-11-15T08:15:24.866Z,54.45
2022-11-15T08:17:45.431Z,54.00
2022-11-15T08:20:07.062Z,54.37
2022-11-15T08:22:27.675Z,54.32
2022-11-15T08:24:47.847Z,54.33
2022-11-15T08:27:16.163Z,54.27
2022-11-15T08:29:37.269Z,54.42
2022-11-15T08:31:58.282Z,54.88
2022-11-15T08:34:19.123Z,54.82
2022-11-15T08:36:46.005Z,54.85
2022-11-15T08:39:06.777Z,54.49
2022-11-15T08:41:36.985Z,54.25
2022-11-15T08:43:58.096Z,54.18
2022-11-15T08:46:19.483Z,53.95
2022-11-15T08:48:40.367Z,53.80
2022-11-15T08:51:01.047Z,54.05
2022-11-15T08:53:47.474Z,52.58
2022-11-15T08:56:10.239Z,53.58
2022-11-15T08:58:30.990Z,53.27
2022-11-15T09:00:51.882Z,53.50
2022-11-15T09:03:12.708Z,53.66
2022-11-15T09:05:36.659Z,53.65
2022-11-15T09:07:57.545Z,53.44
2022-11-15T09:10:18.076Z,53.44
2022-11-15T09:12:39.078Z,53.75
2022-11-15T09:14:59.889Z,53.23
2022-11-15T09:17:24.666Z,53.57
2022-11-15T09:20:10.380Z,52.62
2022-11-15T09:22:30.799Z,52.79
2022-11-15T09:24:51.477Z,53.51
2022-11-15T09:27:13.115Z,53.49
2022-11-15T09:29:33.665Z,53.61
2022-11-15T09:31:54.293Z,53.03
2022-11-15T09:34:14.938Z,53.09
2022-11-15T09:36:35.981Z,53.02
2022-11-15T09:38:59.227Z,52.12
2022-11-15T09:41:42.032Z,51.53
2022-11-15T09:44:44.962Z,51.91
2022-11-15T09:47:08.519Z,51.58
2022-11-15T09:49:31.054Z,52.00
2022-11-15T09:51:55.411Z,51.92
2022-11-15T09:54:51.741Z,50.99
2022-11-15T09:56:33.432Z,51.28
2022-11-15T09:59:03.971Z,49.97
2022-11-15T10:01:13.857Z,50.75
2022-11-15T10:03:43.081Z,49.90
2022-11-15T10:05:49.031Z,51.22
2022-11-15T10:08:08.054Z,49.85
2022-11-15T10:10:42.956Z,49.90
2022-11-15T10:12:49.266Z,50.69
2022-11-15T10:15:01.266Z,51.06
2022-11-15T10:17:40.639Z,50.29
2022-11-15T10:20:12.900Z,49.02
2022-11-15T10:22:20.726Z,49.48
2022-11-15T10:24:29.180Z,49.49
2022-11-15T10:26:31.363Z,49.82
2022-11-15T10:28:33.790Z,50.32
2022-11-15T10:30:42.486Z,50.03
2022-11-15T10:32:46.284Z,49.85
2022-11-15T10:34:50.192Z,49.31
2022-11-15T10:37:00.086Z,48.74
2022-11-15T10:39:02.141Z,49.44
2022-11-15T10:41:12.229Z,48.86
2022-11-15T10:43:16.206Z,49.63
2022-11-15T10:45:28.485Z,49.84
2022-11-15T10:47:39.009Z,49.53
2022-11-15T10:49:56.171Z,49.41
2022-11-15T10:52:16.183Z,49.46
2022-11-15T10:54:27.190Z,49.20
2022-11-15T10:56:29.627Z,49.46
2022-11-15T10:58:41.371Z,49.77
2022-11-15T11:00:43.820Z,49.82
2022-11-15T11:03:08.466Z,48.92
2022-11-15T11:05:42.151Z,47.93
2022-11-15T11:11:09.355Z,49.42
2022-11-15T11:13:30.168Z,50.24
2022-11-15T11:15:32.443Z,49.49
2022-11-15T11:17:46.379Z,49.43
2022-11-15T11:20:01.161Z,49.63
2022-11-15T11:22:42.960Z,49.05
2022-11-15T11:25:05.073Z,47.73
2022-11-15T11:27:34.207Z,47.68
2022-11-15T11:30:03.274Z,48.65
2022-11-15T11:32:38.848Z,47.91
2022-11-15T11:35:42.985Z,47.09
2022-11-15T11:37:52.546Z,47.32
2022-11-15T11:40:17.535Z,47.18
2022-11-15T11:43:02.685Z,46.44
2022-11-15T11:45:47.320Z,45.94
2022-11-15T11:48:09.145Z,47.43
2022-11-15T11:50:24.442Z,46.51
2022-11-15T11:52:28.538Z,47.11
2022-11-15T11:54:51.956Z,46.45
2022-11-15T11:56:55.534Z,48.01
2022-11-15T11:59:07.841Z,47.82
2022-11-15T12:01:21.807Z,48.05
2022-11-15T12:03:36.092Z,48.16
2022-11-15T12:05:56.657Z,47.87
2022-11-15T12:08:11.148Z,48.47
2022-11-15T12:10:23.648Z,48.59
2022-11-15T12:12:48.695Z,48.15
2022-11-15T12:14:57.581Z,48.03
2022-11-15T12:17:00.635Z,49.12
2022-11-15T12:19:06.289Z,48.85
2022-11-15T12:21:36.371Z,49.22
2022-11-15T12:23:53.030Z,47.76
2022-11-15T12:26:03.352Z,48.34
2022-11-15T12:28:36.457Z,48.53
2022-11-15T12:30:53.585Z,48.23
2022-11-15T12:33:02.959Z,48.55
2022-11-15T12:35:21.265Z,48.58
2022-11-15T12:37:45.130Z,48.66
2022-11-15T12:40:25.782Z,48.41
2022-11-15T12:43:08.211Z,48.07
2022-11-15T12:45:36.491Z,48.51
2022-11-15T12:47:38.626Z,49.23
2022-11-15T12:49:40.623Z,49.07
2022-11-15T12:51:53.094Z,48.44
2022-11-15T12:53:55.071Z,49.09
2022-11-15T12:56:16.236Z,48.93
2022-11-15T12:58:29.833Z,49.32
2022-11-15T13:00:34.966Z,49.09
2022-11-15T13:02:47.671Z,49.33
2022-11-15T13:04:51.538Z,49.57
2022-11-15T13:06:56.937Z,49.37
2022-11-15T13:08:59.382Z,49.40
2022-11-15T13:11:39.934Z,49.14
2022-11-15T13:13:46.396Z,49.75
2022-11-15T13:16:19.457Z,49.58
2022-11-15T13:18:37.339Z,49.50
2022-11-15T13:28:42.589Z,49.83
2022-11-15T13:30:47.584Z,49.79
2022-11-15T13:32:51.559Z,49.39
2022-11-15T13:34:53.971Z,49.66
2022-11-15T13:36:56.990Z,50.04
2022-11-15T13:39:26.218Z,50.00
2022-11-15T13:41:37.038Z,49.96
2022-11-15T13:43:39.248Z,49.91
2022-11-15T13:45:41.269Z,50.20
2022-11-15T13:47:44.724Z,50.17
2022-11-15T13:49:47.010Z,50.05
2022-11-15T13:51:52.450Z,49.81
2022-11-15T13:54:30.136Z,49.88
2022-11-15T13:56:35.223Z,50.22
2022-11-15T13:58:40.762Z,50.34
2022-11-15T14:00:46.230Z,50.56
2022-11-15T14:02:48.381Z,50.51
2022-11-15T14:05:00.705Z,50.56
2022-11-15T14:07:03.984Z,50.53
2022-11-15T14:09:12.207Z,50.77
2022-11-15T14:11:18.642Z,50.74
2022-11-15T14:13:34.851Z,51.01
2022-11-15T14:15:39.515Z,51.11
2022-11-15T14:17:49.735Z,51.07
2022-11-15T14:19:53.705Z,50.84
2022-11-15T14:22:26.791Z,51.41
2022-11-15T14:24:32.701Z,51.23
2022-11-15T14:26:35.969Z,51.10
2022-11-15T14:28:40.333Z,51.31
2022-11-15T14:30:43.846Z,51.17
2022-11-15T14:32:50.669Z,51.08
2022-11-15T14:35:01.293Z,51.33
2022-11-15T14:37:03.318Z,51.28
2022-11-15T14:39:06.424Z,51.51
2022-11-15T14:41:20.239Z,51.71
2022-11-15T14:43:22.438Z,51.52
2022-11-15T14:45:24.545Z,51.64
2022-11-15T14:47:26.641Z,51.66
2022-11-15T14:49:28.688Z,52.12
2022-11-15T14:51:31.217Z,51.65
2022-11-15T14:53:33.472Z,51.75
2022-11-15T14:55:37.352Z,51.86
2022-11-15T14:57:39.650Z,51.99
2022-11-15T14:59:41.806Z,52.20
2022-11-15T15:01:46.263Z,52.09
2022-11-15T15:03:48.429Z,51.93
2022-11-15T15:05:50.928Z,52.12
2022-11-15T15:07:54.317Z,52.21
2022-11-15T15:10:06.744Z,52.20
2022-11-15T15:12:20.889Z,51.90
2022-11-15T15:14:23.222Z,52.02
2022-11-15T15:16:25.945Z,52.26
2022-11-15T15:18:28.200Z,51.84
2022-11-15T15:20:31.193Z,51.61
2022-11-15T15:22:34.155Z,51.89
2022-11-15T15:24:36.072Z,52.07
2022-11-15T15:26:40.288Z,51.76
2022-11-15T15:28:42.573Z,52.13
2022-11-15T15:30:44.916Z,52.00
2022-11-15T15:32:47.064Z,52.20
2022-11-15T15:34:49.397Z,52.17
2022-11-15T15:37:50.971Z,52.48
2022-11-15T15:39:57.329Z,52.57
2022-11-15T15:41:59.567Z,52.16
2022-11-15T15:44:02.126Z,51.97
2022-11-15T15:46:04.613Z,52.05
2022-11-15T15:48:07.055Z,52.05
2022-11-15T15:50:21.183Z,52.51
2022-11-15T15:52:23.342Z,52.16
2022-11-15T15:54:25.364Z,51.97
2022-11-15T15:56:29.305Z,52.06
2022-11-15T15:58:35.657Z,52.05
2022-11-15T16:00:38.628Z,52.51
2022-11-15T16:02:41.262Z,52.50
2022-11-15T16:04:43.752Z,52.43
2022-11-15T16:06:46.037Z,52.32
2022-11-15T16:09:13.666Z,52.23
2022-11-15T16:11:11.367Z,52.20
2022-11-15T16:13:13.559Z,52.48
2022-11-15T16:15:16.211Z,52.32
2022-11-15T16:17:21.517Z,52.34
2022-11-15T16:19:23.785Z,52.45
2022-11-15T16:21:26.035Z,52.32
2022-11-15T16:23:27.923Z,52.49
2022-11-15T16:25:31.609Z,52.40
2022-11-15T16:27:33.804Z,52.17
2022-11-15T16:29:36.093Z,52.38
2022-11-15T16:31:38.659Z,52.58
2022-11-15T16:33:41.675Z,52.51
2022-11-15T16:35:43.801Z,52.78
2022-11-15T16:37:47.370Z,52.71
2022-11-15T16:39:50.737Z,52.69
2022-11-15T16:41:52.889Z,52.45
2022-11-15T16:43:54.881Z,52.46
2022-11-15T16:45:57.048Z,52.98
2022-11-15T16:51:23.951Z,53.25
2022-11-15T16:53:27.962Z,53.29
2022-11-15T16:55:30.684Z,53.65
2022-11-15T16:58:02.015Z,54.05
2022-11-15T17:00:04.775Z,53.77
2022-11-15T17:02:12.714Z,54.01
2022-11-15T17:04:16.491Z,53.73
2022-11-15T17:06:19.151Z,53.93
2022-11-15T17:08:22.641Z,54.50
2022-11-15T17:10:26.521Z,53.92
2022-11-15T17:12:28.935Z,54.00
2022-11-15T17:14:31.436Z,54.07
2022-11-15T17:16:38.369Z,54.67
2022-11-15T17:18:41.776Z,54.07
2022-11-15T17:20:44.661Z,54.25
2022-11-15T17:22:47.596Z,54.24
2022-11-15T17:24:49.975Z,54.01
2022-11-15T17:26:52.215Z,54.04
2022-11-15T17:28:57.841Z,54.82
2022-11-15T17:31:00.289Z,54.32
2022-11-15T17:33:02.215Z,54.65
2022-11-15T17:35:12.171Z,54.78
2022-11-15T17:37:17.459Z,54.58
2022-11-15T17:39:21.008Z,54.78
2022-11-15T17:41:23.427Z,54.74
2022-11-15T17:43:25.611Z,54.73
2022-11-15T17:45:27.751Z,55.37
2022-11-15T17:47:29.724Z,54.69
2022-11-15T17:49:31.920Z,54.75
2022-11-15T17:51:34.046Z,55.17
2022-11-15T17:53:38.685Z,55.14
2022-11-15T17:55:43.026Z,55.08
2022-11-15T17:57:45.125Z,55.39
2022-11-15T17:59:48.800Z,55.02
2022-11-15T18:01:50.919Z,55.15
2022-11-15T18:03:53.889Z,54.87
2022-11-15T18:05:56.046Z,55.12
2022-11-15T18:07:58.268Z,55.13
2022-11-15T18:10:00.492Z,55.32
2022-11-15T18:12:02.578Z,54.94
2022-11-15T18:14:06.690Z,55.42
2022-11-15T18:16:15.696Z,55.86
2022-11-15T18:18:20.298Z,55.95
2022-11-15T18:20:26.551Z,55.70
2022-11-15T18:22:30.840Z,56.03
2022-11-15T18:24:41.637Z,55.61
2022-11-15T18:26:43.809Z,56.45
2022-11-15T18:28:49.006Z,56.14
2022-11-15T18:30:52.758Z,56.32
2022-11-15T18:32:55.520Z,56.59
2022-11-15T18:34:57.625Z,56.39
2022-11-15T18:37:01.650Z,56.73
2022-11-15T18:39:05.044Z,56.64
2022-11-15T18:41:09.776Z,56.21
2022-11-15T18:43:36.978Z,57.16
2022-11-15T18:45:39.090Z,56.26
2022-11-15T18:47:44.201Z,56.40
2022-11-15T18:49:48.531Z,56.45
2022-11-15T18:51:50.873Z,56.60
2022-11-15T18:53:54.801Z,56.74
2022-11-15T18:56:05.178Z,56.88
2022-11-15T18:58:07.097Z,56.46
2022-11-15T19:00:09.917Z,56.21
2022-11-15T19:02:13.110Z,56.33
2022-11-15T19:04:19.089Z,56.32
2022-11-15T19:06:23.933Z,56.49
2022-11-15T19:08:26.301Z,56.47
2022-11-15T19:10:28.297Z,56.47
2022-11-15T19:12:30.276Z,56.76
2022-11-15T19:14:32.915Z,56.94
2022-11-15T19:16:38.094Z,56.91
2022-11-15T19:18:40.220Z,56.98
2022-11-15T19:20:42.596Z,57.09
2022-11-15T19:22:44.671Z,56.94
2022-11-15T19:24:46.655Z,56.81
2022-11-15T19:26:48.987Z,57.04
2022-11-15T19:28:58.404Z,57.62
2022-11-15T19:31:11.521Z,57.61
2022-11-15T19:33:13.709Z,56.92
2022-11-15T19:35:15.931Z,57.41
2022-11-15T19:37:17.879Z,57.29
2022-11-15T19:39:20.054Z,57.23
2022-11-15T19:41:24.150Z,57.46
2022-11-15T19:43:26.703Z,57.21
2022-11-15T19:45:28.551Z,57.20
2022-11-15T19:47:33.621Z,57.40
2022-11-15T19:49:38.418Z,57.08
2022-11-15T19:51:42.653Z,56.96
2022-11-15T19:53:45.446Z,57.56
2022-11-15T19:56:00.307Z,58.36
2022-11-15T19:58:02.762Z,57.57
2022-11-15T20:00:07.600Z,57.52
2022-11-15T20:02:12.518Z,58.01
2022-11-15T20:04:14.662Z,58.01
2022-11-15T20:06:22.005Z,57.92
2022-11-15T20:08:24.225Z,58.41
2022-11-15T20:10:26.228Z,58.23
2022-11-15T20:12:28.190Z,58.32
2022-11-15T20:14:30.522Z,58.23
2022-11-15T20:16:33.719Z,58.27
2022-11-15T20:18:36.118Z,58.18
2022-11-15T20:20:38.698Z,57.97
2022-11-15T20:22:40.904Z,58.22
2022-11-15T20:24:42.987Z,58.06
2022-11-15T20:26:45.194Z,58.06
2022-11-15T20:28:48.241Z,58.44
2022-11-15T20:30:53.709Z,58.64
2022-11-15T20:32:55.722Z,59.07
2022-11-15T20:34:57.599Z,59.10
2022-11-15T20:36:59.798Z,59.13
2022-11-15T20:39:01.920Z,59.47
2022-11-15T20:41:04.101Z,59.57
2022-11-15T20:43:07.236Z,59.73
2022-11-15T20:45:09.519Z,59.64
2022-11-15T20:47:11.639Z,59.26
2022-11-15T20:49:13.407Z,59.16
2022-11-15T20:51:17.112Z,59.75
2022-11-15T20:53:20.464Z,59.52
2022-11-15T20:55:22.896Z,59.61
2022-11-15T20:57:25.018Z,59.62
2022-11-15T20:59:27.296Z,59.34
2022-11-15T21:01:29.711Z,59.16
2022-11-15T21:03:33.290Z,59.38
2022-11-15T21:05:38.958Z,59.83
2022-11-15T21:07:46.611Z,59.61
2022-11-15T21:10:07.601Z,59.41
2022-11-15T21:12:14.064Z,59.03
2022-11-15T21:14:16.157Z,59.06
2022-11-15T21:16:18.031Z,59.41
2022-11-15T21:18:19.958Z,59.08
2022-11-15T21:20:21.817Z,58.77
2022-11-15T21:22:24.056Z,59.08
2022-11-15T21:24:26.336Z,58.59
2022-11-15T21:26:28.754Z,58.90
2022-11-15T21:28:31.305Z,59.18
2022-11-15T21:30:33.976Z,59.61
2022-11-15T21:32:39.345Z,59.33
2022-11-15T21:34:41.735Z,59.66
2022-11-15T21:36:46.110Z,59.64
2022-11-15T21:38:50.480Z,59.27
2022-11-15T21:40:53.633Z,59.49
2022-11-15T21:42:55.636Z,59.77
2022-11-15T21:44:57.766Z,59.78
2022-11-15T21:47:00.502Z,59.78
2022-11-15T21:49:02.877Z,59.80
2022-11-15T21:51:07.510Z,59.92
2022-11-15T21:53:09.533Z,60.21
2022-11-15T21:55:11.656Z,59.81
2022-11-15T21:57:13.783Z,59.60
2022-11-15T21:59:15.633Z,60.18
2022-11-15T22:01:36.155Z,60.07
2022-11-15T22:03:38.127Z,59.85
2022-11-15T22:05:43.995Z,60.29
2022-11-15T22:07:45.971Z,60.22
2022-11-15T22:09:48.022Z,60.06
2022-11-15T22:11:50.146Z,59.80
2022-11-15T22:13:52.204Z,60.31
2022-11-15T22:15:55.144Z,60.09
2022-11-15T22:18:00.121Z,60.92
2022-11-15T22:20:16.886Z,61.02
2022-11-15T22:22:24.717Z,60.99
2022-11-15T22:24:27.514Z,62.06
2022-11-15T22:26:29.620Z,61.15
2022-11-15T22:28:32.541Z,61.08
2022-11-15T22:30:39.592Z,61.11
2022-11-15T22:36:08.027Z,61.22
2022-11-15T22:38:11.191Z,61.80
2022-11-15T22:40:13.586Z,61.58
2022-11-15T22:42:20.721Z,61.89
2022-11-15T22:44:25.428Z,61.50
2022-11-15T22:46:27.971Z,61.83
2022-11-15T22:48:36.442Z,61.85
2022-11-15T22:50:39.225Z,62.02
2022-11-15T22:52:41.490Z,61.97
2022-11-15T22:54:46.586Z,61.68
2022-11-15T22:56:51.053Z,61.95
2022-11-15T22:58:53.152Z,62.02
2022-11-15T23:00:58.297Z,62.59
2022-11-15T23:03:00.957Z,62.07
2022-11-15T23:05:03.580Z,62.15
2022-11-15T23:07:05.824Z,62.07
2022-11-15T23:09:08.385Z,62.41
2022-11-15T23:11:30.272Z,62.63
2022-11-15T23:13:33.570Z,62.11
2022-11-15T23:15:54.441Z,62.43
2022-11-15T23:17:56.789Z,62.15
2022-11-15T23:20:11.157Z,62.38
2022-11-15T23:22:39.725Z,62.37
2022-11-15T23:24:41.913Z,62.31
2022-11-15T23:26:46.073Z,62.70
2022-11-15T23:28:48.264Z,62.37
2022-11-15T23:31:09.122Z,62.33
2022-11-15T23:34:01.982Z,62.68
2022-11-15T23:36:05.402Z,62.50
2022-11-15T23:38:07.921Z,62.25
2022-11-15T23:40:10.911Z,62.44
2022-11-15T23:42:20.278Z,61.68
2022-11-15T23:44:23.193Z,61.99
2022-11-15T23:46:25.212Z,61.72
2022-11-15T23:48:28.089Z,62.03
2022-11-15T23:50:32.926Z,62.34
2022-11-15T23:52:35.216Z,62.68
2022-11-15T23:54:38.406Z,62.28
2022-11-15T23:56:40.685Z,62.50
2022-11-15T23:58:44.400Z,62.44
